Jerusalem, Ohio
Current Conditions -  °F | °C
As of 4:53 AM on Monday 22 Dec 2014 (Local Time) from KHLG Reporting Station
Clear Clear  
Wind Chill: 18°   Ceiling: Unl
Heat Index: 26°   Visibility: 8mi
Dew Point: 21°   Wind: 7mph
Humidity: 81%   Direction: 100°E
Pressure: 30.09"   Gusts: NA
Location:  39.85°N, 81.09°W
Report Text: KHLG 220953Z AUTO 10006KT 8SM CLR M03/M06 A3009 RMK AO2 SLP205 T10331061
Loading
Personal Weather Stations






























Interactive Weather Map New forecast layout! Learn more

10-Day Weather Forecast

Advertisements
Track Severe Weather on mobile